Time;durP1;ratioP1;P1;durP2;ratioP2;P2;SDS_P1;SDS_P2;PMS_P1;PMS_P2;Temp;Humidity;BMP_temperature;BMP_pressure;BME280_temperature;BME280_humidity;BME280_pressure;Samples;Min_cycle;Max_cycle;Signal;HPM_P1;HPM_P2
2022/05/22 00:02:24;;;;;;;0.10;0.10;;;15.80;91.40;;;;;;5051754;28;20091;-71
2022/05/22 00:04:51;;;;;;;0.30;0.30;;;15.80;91.90;;;;;;5051704;28;20029;-72
2022/05/22 00:07:16;;;;;;;0.10;0.10;;;15.70;92.40;;;;;;5051369;28;20500;-72
2022/05/22 00:09:42;;;;;;;0.10;0.10;;;15.50;92.00;;;;;;5051682;28;20031;-72
2022/05/22 00:12:10;;;;;;;0.17;0.17;;;15.60;92.30;;;;;;5051562;28;20029;-72
2022/05/22 00:14:36;;;;;;;0.13;0.13;;;15.60;92.70;;;;;;5052051;28;20040;-72
2022/05/22 00:17:03;;;;;;;0.30;0.30;;;15.60;92.40;;;;;;5033378;28;20100;-71
2022/05/22 00:19:33;;;;;;;0.20;0.20;;;15.50;92.20;;;;;;5055086;28;20063;-72
2022/05/22 00:21:59;;;;;;;0.15;0.15;;;15.50;92.80;;;;;;5021266;28;20071;-73
2022/05/22 00:24:28;;;;;;;0.20;0.20;;;15.60;92.30;;;;;;5037790;28;20021;-72
2022/05/22 00:26:54;;;;;;;0.20;0.20;;;15.60;92.00;;;;;;5055294;28;20458;-72
2022/05/22 00:29:20;;;;;;;0.10;0.10;;;15.70;92.40;;;;;;5055328;28;20063;-72
2022/05/22 00:31:46;;;;;;;0.30;0.30;;;15.70;92.40;;;;;;5055517;28;20025;-72
2022/05/22 00:34:12;;;;;;;0.35;0.35;;;15.80;92.10;;;;;;5055361;28;20025;-72
2022/05/22 00:36:39;;;;;;;0.20;0.20;;;15.70;92.50;;;;;;5037399;28;20471;-72
2022/05/22 00:39:05;;;;;;;0.10;0.10;;;15.60;92.40;;;;;;5055293;28;20023;-71
2022/05/22 00:41:32;;;;;;;0.20;0.20;;;15.50;92.90;;;;;;5055516;28;20379;-73
2022/05/22 00:43:59;;;;;;;0.20;0.20;;;15.50;92.90;;;;;;5055250;28;20017;-72
2022/05/22 00:46:25;;;;;;;0.20;0.20;;;15.40;92.90;;;;;;5037164;28;20029;-72
2022/05/22 00:49:01;;;;;;;0.52;0.52;;;15.40;93.10;;;;;;5037106;28;20032;-72
2022/05/22 00:51:35;;;;;;;0.10;0.10;;;15.30;92.90;;;;;;5037310;28;20108;-72
2022/05/22 00:54:07;;;;;;;0.20;0.20;;;15.20;93.00;;;;;;5055185;28;20021;-72
2022/05/22 00:57:14;;;;;;;0.20;0.20;;;15.20;93.50;;;;;;5054756;28;20029;-71
2022/05/22 00:59:50;;;;;;;0.10;0.10;;;15.20;92.90;;;;;;5054355;28;20115;-72
2022/05/22 01:02:16;;;;;;;0.20;0.20;;;14.90;93.40;;;;;;5054937;28;20468;-73
2022/05/22 01:04:44;;;;;;;0.10;0.10;;;14.90;93.90;;;;;;5054819;28;20021;-72
2022/05/22 01:07:12;;;;;;;0.20;0.20;;;15.00;93.80;;;;;;5036649;28;20025;-72
2022/05/22 01:09:37;;;;;;;0.68;0.68;;;15.00;93.60;;;;;;5036898;28;20511;-72
2022/05/22 01:12:08;;;;;;;0.10;0.10;;;15.00;93.80;;;;;;5054705;28;20032;-72
2022/05/22 01:14:35;;;;;;;0.17;0.17;;;15.00;93.70;;;;;;5054749;28;20059;-72
2022/05/22 01:17:07;;;;;;;0.20;0.20;;;14.90;94.50;;;;;;5036560;28;20385;-72
2022/05/22 01:19:32;;;;;;;0.20;0.20;;;15.00;94.40;;;;;;5054599;28;20097;-72
2022/05/22 01:22:01;;;;;;;0.10;0.10;;;15.10;94.10;;;;;;5054669;28;20449;-72
2022/05/22 01:24:27;;;;;;;0.43;0.43;;;15.30;93.90;;;;;;5054538;28;20017;-71
2022/05/22 01:26:56;;;;;;;0.10;0.10;;;15.30;93.30;;;;;;5036353;28;20036;-72
2022/05/22 01:29:22;;;;;;;0.20;0.20;;;15.30;93.40;;;;;;5053886;28;20029;-72
2022/05/22 01:31:48;;;;;;;1.98;1.88;;;15.50;93.50;;;;;;5054432;28;20476;-72
2022/05/22 01:34:14;;;;;;;0.13;0.13;;;15.60;93.20;;;;;;5054298;28;20033;-72
2022/05/22 01:36:40;;;;;;;0.10;0.10;;;15.70;93.00;;;;;;5036118;28;20485;-73
2022/05/22 01:39:07;;;;;;;0.20;0.20;;;15.80;92.70;;;;;;5054083;28;20036;-73
2022/05/22 01:41:33;;;;;;;0.30;0.30;;;15.80;92.70;;;;;;5054290;28;20033;-72
2022/05/22 01:43:59;;;;;;;0.20;0.20;;;15.70;92.10;;;;;;5054272;28;20534;-72
2022/05/22 01:46:25;;;;;;;0.15;0.15;;;15.50;92.60;;;;;;5053911;28;20025;-72
2022/05/22 01:48:51;;;;;;;0.20;0.20;;;15.20;92.80;;;;;;5036340;28;20070;-72
2022/05/22 01:51:17;;;;;;;0.20;0.20;;;15.00;93.60;;;;;;5053901;28;20100;-72
2022/05/22 01:53:43;;;;;;;0.40;0.40;;;14.80;93.50;;;;;;5054044;28;20020;-72
2022/05/22 01:56:08;;;;;;;0.20;0.20;;;14.90;94.30;;;;;;5053830;28;20100;-73
2022/05/22 01:58:34;;;;;;;0.17;0.17;;;15.00;94.00;;;;;;5053934;28;20021;-72
2022/05/22 02:01:00;;;;;;;0.10;0.10;;;15.00;93.80;;;;;;5036033;28;20036;-72
2022/05/22 02:03:26;;;;;;;0.10;0.10;;;15.00;93.70;;;;;;5035816;28;20021;-72
2022/05/22 02:05:52;;;;;;;0.20;0.20;;;15.00;93.70;;;;;;5035874;28;20049;-71
2022/05/22 02:08:24;;;;;;;0.10;0.10;;;14.90;93.80;;;;;;5053407;28;20086;-72
2022/05/22 02:10:56;;;;;;;0.20;0.20;;;14.90;93.90;;;;;;5035754;28;20120;-72
2022/05/22 02:13:25;;;;;;;0.10;0.10;;;14.80;93.50;;;;;;5053531;28;20033;-72
2022/05/22 02:15:51;;;;;;;1.08;0.93;;;14.60;94.10;;;;;;5035711;28;20029;-72
2022/05/22 02:18:17;;;;;;;0.20;0.20;;;14.70;94.40;;;;;;5035364;28;20380;-72
2022/05/22 02:20:43;;;;;;;0.20;0.20;;;14.70;94.20;;;;;;5035712;28;20051;-72
2022/05/22 02:23:09;;;;;;;0.20;0.20;;;14.60;94.30;;;;;;5035608;28;20071;-72
2022/05/22 02:25:37;;;;;;;0.20;0.20;;;14.40;94.30;;;;;;5035467;28;20472;-71
2022/05/22 02:28:06;;;;;;;0.20;0.20;;;14.20;94.90;;;;;;5053105;28;20036;-72
2022/05/22 02:30:37;;;;;;;0.20;0.20;;;13.90;95.40;;;;;;5053235;28;20040;-72
2022/05/22 02:33:04;;;;;;;0.10;0.10;;;14.00;95.70;;;;;;5035363;28;20025;-72
2022/05/22 02:35:30;;;;;;;0.10;0.10;;;14.00;95.80;;;;;;5053122;28;20036;-73
2022/05/22 02:37:56;;;;;;;0.20;0.20;;;14.00;95.70;;;;;;5034944;28;20021;-72
2022/05/22 02:40:27;;;;;;;0.38;0.38;;;13.90;96.00;;;;;;5052492;28;20108;-72
2022/05/22 02:42:53;;;;;;;0.20;0.20;;;14.00;95.40;;;;;;5052812;28;20025;-72
2022/05/22 02:45:25;;;;;;;0.20;0.20;;;13.70;95.70;;;;;;5052919;28;20025;-72
2022/05/22 02:47:51;;;;;;;0.20;0.20;;;13.50;96.00;;;;;;5052694;28;20357;-72
2022/05/22 02:50:19;;;;;;;0.20;0.20;;;13.40;96.90;;;;;;5035115;28;20048;-72
2022/05/22 02:52:45;;;;;;;0.20;0.20;;;13.50;96.60;;;;;;5052815;28;20036;-71
2022/05/22 02:55:11;;;;;;;0.10;0.10;;;13.60;96.60;;;;;;5034823;28;20083;-72
2022/05/22 02:57:38;;;;;;;0.20;0.20;;;13.60;96.20;;;;;;5052439;28;20025;-72
2022/05/22 03:00:08;;;;;;;0.17;0.17;;;13.90;96.10;;;;;;5018251;28;20024;-71
2022/05/22 03:02:34;;;;;;;0.50;0.50;;;13.80;96.10;;;;;;5052609;28;20086;-72
2022/05/22 03:05:00;;;;;;;0.15;0.15;;;13.80;96.40;;;;;;5034704;28;20024;-72
2022/05/22 03:07:25;;;;;;;0.20;0.20;;;13.80;96.40;;;;;;5052197;28;20484;-72
2022/05/22 03:09:51;;;;;;;0.20;0.20;;;13.90;96.30;;;;;;5052446;28;20027;-72
2022/05/22 03:12:20;;;;;;;0.10;0.10;;;13.80;96.90;;;;;;5052462;28;20074;-73
2022/05/22 03:14:48;;;;;;;0.10;0.10;;;13.90;95.40;;;;;;5034560;28;20028;-72
2022/05/22 03:17:15;;;;;;;0.20;0.20;;;13.80;96.50;;;;;;5052038;28;20068;-72
2022/05/22 03:19:41;;;;;;;0.20;0.20;;;13.80;97.20;;;;;;5052426;28;20025;-71
2022/05/22 03:22:08;;;;;;;0.20;0.20;;;13.90;97.20;;;;;;5052369;28;20029;-72
2022/05/22 03:24:34;;;;;;;0.20;0.20;;;14.10;97.00;;;;;;5052290;28;20032;-72
2022/05/22 03:27:05;;;;;;;0.20;0.20;;;14.20;96.60;;;;;;5034027;28;20028;-72
2022/05/22 03:29:31;;;;;;;0.10;0.10;;;14.00;96.90;;;;;;5052186;28;20454;-72
2022/05/22 03:31:57;;;;;;;0.60;0.60;;;14.10;97.50;;;;;;5034509;28;20036;-71
2022/05/22 03:34:23;;;;;;;0.10;0.10;;;14.10;98.00;;;;;;5052230;28;20385;-71
2022/05/22 03:36:49;;;;;;;0.20;0.20;;;14.10;98.10;;;;;;5051757;28;20036;-72
2022/05/22 03:39:15;;;;;;;0.10;0.10;;;14.20;98.40;;;;;;5052079;28;20025;-72
2022/05/22 03:41:41;;;;;;;0.20;0.20;;;14.20;98.30;;;;;;5052044;28;20658;-72
2022/05/22 03:44:07;;;;;;;0.10;0.10;;;14.40;98.90;;;;;;5034222;28;20455;-72
2022/05/22 03:46:33;;;;;;;0.20;0.20;;;14.30;98.70;;;;;;5051801;28;20024;-72
2022/05/22 03:49:00;;;;;;;0.10;0.10;;;14.10;99.60;;;;;;5051962;28;20473;-72
2022/05/22 03:51:26;;;;;;;0.20;0.20;;;14.10;99.90;;;;;;5034077;28;20123;-72
2022/05/22 03:53:52;;;;;;;0.10;0.10;;;14.10;99.90;;;;;;5051804;28;20120;-72
2022/05/22 03:56:19;;;;;;;0.35;0.35;;;14.00;99.90;;;;;;5051651;28;20028;-72
2022/05/22 03:58:45;;;;;;;0.20;0.20;;;14.30;99.90;;;;;;5051797;28;20025;-72
2022/05/22 04:01:12;;;;;;;0.13;0.13;;;14.10;99.90;;;;;;5034073;28;20024;-72
2022/05/22 04:03:38;;;;;;;0.30;0.20;;;14.10;99.90;;;;;;5051863;28;20104;-72
2022/05/22 04:06:06;;;;;;;0.65;0.65;;;13.90;99.90;;;;;;5051902;28;20052;-72
2022/05/22 04:08:32;;;;;;;0.20;0.20;;;13.70;99.90;;;;;;5051489;28;20025;-72
2022/05/22 04:11:05;;;;;;;0.10;0.10;;;13.60;99.90;;;;;;5051785;28;20051;-72
2022/05/22 04:13:31;;;;;;;0.35;0.35;;;13.70;99.90;;;;;;5051774;28;20024;-72
2022/05/22 04:15:57;;;;;;;0.20;0.20;;;14.00;99.90;;;;;;5034049;28;20025;-71
2022/05/22 04:18:23;;;;;;;0.10;0.10;;;14.10;99.90;;;;;;5017070;28;20032;-72
2022/05/22 04:20:48;;;;;;;0.20;0.20;;;14.00;99.90;;;;;;5033919;28;20502;-73
2022/05/22 04:25:59;;;;;;;0.20;0.20;;;14.10;99.90;;;;;;5051618;28;20038;-72
2022/05/22 04:28:27;;;;;;;0.17;0.17;;;14.00;99.90;;;;;;5033594;28;20502;-72
2022/05/22 04:30:53;;;;;;;0.20;0.20;;;14.00;99.90;;;;;;5112892;22;20037;-73
2022/05/22 04:33:18;;;;;;;2.83;1.45;;;14.20;99.90;;;;;;5035111;28;20503;-75
2022/05/22 04:35:45;;;;;;;0.20;0.20;;;14.20;99.90;;;;;;5017232;28;20021;-74
2022/05/22 04:38:11;;;;;;;0.55;0.38;;;14.10;99.90;;;;;;5033281;28;20029;-76
2022/05/22 04:40:38;;;;;;;0.20;0.20;;;14.10;99.90;;;;;;5033647;28;20048;-75
2022/05/22 04:43:05;;;;;;;0.20;0.20;;;14.30;99.90;;;;;;5051456;28;20017;-75
2022/05/22 04:45:32;;;;;;;0.90;0.47;;;14.50;99.90;;;;;;5051088;28;20083;-74
2022/05/22 04:47:58;;;;;;;0.20;0.20;;;14.20;99.90;;;;;;5051374;28;20029;-76
2022/05/22 04:50:25;;;;;;;0.50;0.38;;;14.10;99.90;;;;;;5051368;28;20055;-75
2022/05/22 04:52:51;;;;;;;0.20;0.20;;;14.10;99.90;;;;;;5033625;28;20029;-76
2022/05/22 04:55:16;;;;;;;0.20;0.20;;;14.20;99.90;;;;;;5033992;28;20443;-76
2022/05/22 04:57:43;;;;;;;0.20;0.20;;;14.20;99.90;;;;;;5051161;28;20025;-75
2022/05/22 05:00:11;;;;;;;0.20;0.20;;;14.30;99.90;;;;;;5051270;28;20020;-75
2022/05/22 05:02:37;;;;;;;0.25;0.25;;;14.30;99.90;;;;;;5051347;28;20025;-76
2022/05/22 05:05:05;;;;;;;0.43;0.43;;;14.10;99.90;;;;;;5053195;28;20112;-75
2022/05/22 05:07:32;;;;;;;0.20;0.20;;;14.20;99.90;;;;;;5036925;28;20033;-76
2022/05/22 05:09:58;;;;;;;0.10;0.10;;;14.40;99.90;;;;;;5055317;28;20024;-75
2022/05/22 05:12:24;;;;;;;0.17;0.17;;;14.60;99.90;;;;;;5037149;28;20025;-75
2022/05/22 05:14:50;;;;;;;0.20;0.20;;;14.70;99.90;;;;;;5054794;28;20036;-75
2022/05/22 05:17:18;;;;;;;0.20;0.20;;;15.10;99.90;;;;;;5020097;28;20025;-75
2022/05/22 05:19:44;;;;;;;0.20;0.20;;;15.20;99.90;;;;;;5054676;28;20388;-75
2022/05/22 05:22:10;;;;;;;0.10;0.10;;;15.00;99.90;;;;;;5036734;28;20366;-75
2022/05/22 05:24:37;;;;;;;0.10;0.10;;;14.80;99.90;;;;;;5040915;28;20055;-75
2022/05/22 05:27:03;;;;;;;0.10;0.10;;;14.90;99.90;;;;;;5055175;28;20025;-75
2022/05/22 05:29:29;;;;;;;0.10;0.10;;;15.00;99.90;;;;;;5054530;28;20109;-75
2022/05/22 05:31:55;;;;;;;0.15;0.15;;;15.20;99.90;;;;;;5036545;28;20107;-74
2022/05/22 05:34:21;;;;;;;0.10;0.10;;;15.30;99.90;;;;;;5054618;28;20029;-75
2022/05/22 05:36:46;;;;;;;0.20;0.20;;;15.40;99.90;;;;;;5036725;28;20060;-76
2022/05/22 05:39:13;;;;;;;0.10;0.10;;;15.60;99.90;;;;;;5020565;28;20063;-74
2022/05/22 05:41:38;;;;;;;0.10;0.10;;;15.80;99.90;;;;;;5055062;28;20453;-75
2022/05/22 05:44:06;;;;;;;0.10;0.10;;;16.10;99.90;;;;;;5020808;28;20049;-73
2022/05/22 05:46:36;;;;;;;0.20;0.20;;;16.20;99.90;;;;;;5036799;28;20017;-75
2022/05/22 05:49:04;;;;;;;0.13;0.13;;;16.30;99.90;;;;;;5054531;28;20396;-75
2022/05/22 05:51:30;;;;;;;0.30;0.30;;;16.50;99.90;;;;;;5054155;28;20051;-76
2022/05/22 05:53:56;;;;;;;0.50;0.50;;;16.60;99.90;;;;;;5035204;28;20101;-74
2022/05/22 05:56:22;;;;;;;0.73;0.73;;;16.70;99.90;;;;;;5054445;28;20385;-76
2022/05/22 05:58:48;;;;;;;0.20;0.20;;;16.70;99.90;;;;;;5036953;28;20017;-75
2022/05/22 06:01:16;;;;;;;0.10;0.10;;;16.50;99.90;;;;;;5054168;28;20152;-76
2022/05/22 06:03:42;;;;;;;0.63;0.63;;;16.60;99.90;;;;;;5035892;28;20017;-76
2022/05/22 06:06:09;;;;;;;0.10;0.10;;;16.60;99.90;;;;;;5053755;28;20039;-76
2022/05/22 06:08:35;;;;;;;0.20;0.20;;;16.70;99.90;;;;;;5053532;28;20029;-76
2022/05/22 06:11:01;;;;;;;0.20;0.20;;;16.90;99.90;;;;;;5053449;28;20086;-75
2022/05/22 06:13:27;;;;;;;0.20;0.20;;;16.80;99.90;;;;;;5035926;28;20032;-75
2022/05/22 06:15:53;;;;;;;0.10;0.10;;;16.80;99.90;;;;;;5035895;28;20431;-75
2022/05/22 06:18:20;;;;;;;0.10;0.10;;;17.00;99.90;;;;;;5053334;28;20025;-76
2022/05/22 06:20:46;;;;;;;0.10;0.10;;;17.30;99.90;;;;;;5035571;28;20079;-75
2022/05/22 06:23:12;;;;;;;0.10;0.10;;;17.30;99.90;;;;;;5036155;28;20108;-76
2022/05/22 06:25:44;;;;;;;0.10;0.10;;;17.40;99.90;;;;;;5035475;28;20021;-76
2022/05/22 06:28:11;;;;;;;0.75;0.75;;;17.50;99.90;;;;;;5035634;28;20112;-76
2022/05/22 06:30:37;;;;;;;0.10;0.10;;;17.30;99.90;;;;;;5053151;28;20025;-75
2022/05/22 06:33:08;;;;;;;0.20;0.20;;;17.20;99.90;;;;;;5035453;28;20029;-74
2022/05/22 06:35:34;;;;;;;0.30;0.30;;;17.30;99.90;;;;;;5035447;28;20029;-74
2022/05/22 06:38:00;;;;;;;0.10;0.10;;;17.50;99.90;;;;;;5052825;28;20086;-75
2022/05/22 06:40:26;;;;;;;0.10;0.10;;;17.80;99.90;;;;;;5018747;28;20025;-75
2022/05/22 06:42:52;;;;;;;0.10;0.10;;;18.00;99.90;;;;;;5035255;28;20028;-75
2022/05/22 06:45:24;;;;;;;0.10;0.10;;;18.20;99.20;;;;;;5035519;28;20024;-76
2022/05/22 06:47:51;;;;;;;0.10;0.10;;;18.10;99.90;;;;;;5053539;28;20107;-76
2022/05/22 06:50:23;;;;;;;0.10;0.10;;;18.00;98.80;;;;;;5033829;28;20500;-75
2022/05/22 06:52:48;;;;;;;;;;;18.20;98.60;;;;;;5053341;28;20074;-75
2022/05/22 06:55:15;;;;;;;0.10;0.10;;;18.50;97.60;;;;;;5034871;28;19909;-76
2022/05/22 06:57:41;;;;;;;0.10;0.10;;;18.60;97.60;;;;;;5052981;28;20418;-76
2022/05/22 07:00:15;;;;;;;0.40;0.30;;;18.80;95.60;;;;;;5035166;28;20033;-76
2022/05/22 07:02:42;;;;;;;0.10;0.10;;;18.80;95.30;;;;;;5052733;28;20051;-76
2022/05/22 07:05:09;;;;;;;0.10;0.10;;;18.80;94.40;;;;;;5052710;28;20021;-76
2022/05/22 07:07:35;;;;;;;0.10;0.10;;;18.80;94.00;;;;;;5034569;28;20140;-76
2022/05/22 07:10:01;;;;;;;0.10;0.10;;;18.90;94.40;;;;;;5053086;28;20055;-76
2022/05/22 07:12:27;;;;;;;0.10;0.10;;;19.20;93.20;;;;;;5034700;28;20112;-76
2022/05/22 07:14:55;;;;;;;0.10;0.10;;;19.20;93.10;;;;;;5052330;28;20072;-74
2022/05/22 07:17:24;;;;;;;0.10;0.10;;;19.40;92.60;;;;;;5034474;28;20036;-74
2022/05/22 07:19:51;;;;;;;0.13;0.10;;;19.40;93.10;;;;;;5034506;28;20024;-75
2022/05/22 07:22:17;;;;;;;0.10;0.10;;;19.40;92.40;;;;;;5051831;28;20465;-75
2022/05/22 07:24:43;;;;;;;0.40;0.40;;;19.60;92.10;;;;;;5056577;28;20020;-76
2022/05/22 07:27:10;;;;;;;0.10;0.10;;;19.40;91.50;;;;;;5060489;28;20025;-76
2022/05/22 07:29:36;;;;;;;0.10;0.10;;;19.60;91.50;;;;;;5054636;28;20031;-76
2022/05/22 07:32:04;;;;;;;0.10;0.10;;;19.90;91.60;;;;;;5072745;28;20178;-76
2022/05/22 07:37:10;;;;;;;0.10;0.10;;;20.00;89.70;;;;;;5031126;28;20041;-74
2022/05/22 07:39:36;;;;;;;0.25;0.25;;;20.30;89.90;;;;;;5014696;28;20484;-72
2022/05/22 07:42:01;;;;;;;0.10;0.10;;;20.30;88.70;;;;;;5032259;28;20061;-72
2022/05/22 07:44:27;;;;;;;0.00;0.00;;;20.50;88.10;;;;;;5032669;28;20104;-72
2022/05/22 07:46:53;;;;;;;0.10;0.10;;;20.70;87.20;;;;;;5032399;28;20026;-73
2022/05/22 07:52:05;;;;;;;0.08;0.08;;;20.70;84.70;;;;;;5032605;28;20496;-74
2022/05/22 07:54:39;;;;;;;0.10;0.10;;;20.90;83.20;;;;;;5014777;28;20032;-74
2022/05/22 07:57:06;;;;;;;0.10;0.10;;;21.20;79.60;;;;;;5023375;28;20099;-73
2022/05/22 07:59:37;;;;;;;0.10;0.10;;;21.10;79.00;;;;;;5034175;28;20025;-72
2022/05/22 08:02:04;;;;;;;0.10;0.10;;;21.40;79.50;;;;;;5031945;28;20021;-74
2022/05/22 08:04:31;;;;;;;0.45;0.25;;;21.70;77.60;;;;;;5014509;28;20115;-72
2022/05/22 08:06:56;;;;;;;0.10;0.10;;;21.80;75.40;;;;;;5013861;28;20021;-72
2022/05/22 08:09:22;;;;;;;0.13;0.13;;;21.80;75.40;;;;;;5031524;28;20507;-72
2022/05/22 08:11:49;;;;;;;0.22;0.22;;;22.00;71.80;;;;;;5031902;28;20022;-73
2022/05/22 08:14:15;;;;;;;0.10;0.10;;;22.30;70.30;;;;;;5014130;28;20036;-72
2022/05/22 08:16:43;;;;;;;0.00;0.00;;;22.20;71.00;;;;;;5031387;28;20489;-72
2022/05/22 08:19:09;;;;;;;0.10;0.10;;;22.10;70.50;;;;;;5031666;28;20049;-73
2022/05/22 08:21:35;;;;;;;0.22;0.20;;;22.10;70.20;;;;;;5031843;28;20441;-72
2022/05/22 08:24:01;;;;;;;0.10;0.10;;;22.10;70.00;;;;;;5031675;28;20080;-72
2022/05/22 08:26:27;;;;;;;3.95;0.57;;;22.50;69.70;;;;;;5031838;28;20033;-72
2022/05/22 08:28:54;;;;;;;0.00;0.00;;;22.80;66.80;;;;;;5031517;28;20022;-72
2022/05/22 08:31:20;;;;;;;0.05;0.05;;;23.00;66.20;;;;;;5041765;28;20079;-73
2022/05/22 08:33:46;;;;;;;0.20;0.20;;;23.20;63.90;;;;;;5051391;28;20025;-72
2022/05/22 08:36:12;;;;;;;1.00;0.47;;;23.30;63.30;;;;;;5051310;28;20071;-72
2022/05/22 08:38:38;;;;;;;0.13;0.13;;;23.10;62.70;;;;;;5051093;28;20558;-72
2022/05/22 08:41:09;;;;;;;0.05;0.05;;;23.20;62.80;;;;;;5055151;28;20503;-73
2022/05/22 08:43:41;;;;;;;0.10;0.10;;;23.20;62.00;;;;;;5055303;28;20029;-72
2022/05/22 08:46:40;;;;;;;0.00;0.00;;;23.20;60.40;;;;;;5055109;28;20032;-72
2022/05/22 08:49:46;;;;;;;0.10;0.10;;;23.20;60.20;;;;;;5055181;28;20032;-72
2022/05/22 08:52:20;;;;;;;0.35;0.35;;;23.30;59.30;;;;;;5055023;28;20029;-73
2022/05/22 08:54:53;;;;;;;0.00;0.00;;;23.70;59.90;;;;;;5027909;28;20067;-72
2022/05/22 09:00:11;;;;;;;0.15;0.15;;;24.40;57.60;;;;;;5034867;28;20025;-72
2022/05/22 09:02:41;;;;;;;0.00;0.00;;;23.80;59.40;;;;;;5015805;28;20114;-72
2022/05/22 09:05:11;;;;;;;0.00;0.00;;;24.10;58.70;;;;;;5033543;28;20514;-73
2022/05/22 09:07:44;;;;;;;0.30;0.30;;;24.40;56.80;;;;;;5041375;28;20074;-72
2022/05/22 09:10:26;;;;;;;0.00;0.00;;;24.70;55.70;;;;;;5033567;28;20055;-73
2022/05/22 09:13:10;;;;;;;0.13;0.13;;;24.40;56.10;;;;;;5032942;28;20029;-72
2022/05/22 09:16:03;;;;;;;0.10;0.10;;;24.40;55.80;;;;;;5015729;28;20030;-73
2022/05/22 09:18:56;;;;;;;0.00;0.00;;;24.80;55.00;;;;;;5034431;28;20025;-72
2022/05/22 09:21:31;;;;;;;0.28;0.28;;;24.70;55.90;;;;;;5016751;28;20052;-72
2022/05/22 09:24:07;;;;;;;0.40;0.30;;;24.50;55.50;;;;;;5034635;28;20029;-73
2022/05/22 09:26:51;;;;;;;0.00;0.00;;;24.80;55.70;;;;;;5034580;28;20049;-73
2022/05/22 09:29:45;;;;;;;1.42;0.40;;;24.90;55.50;;;;;;5034410;28;20021;-72
2022/05/22 09:32:24;;;;;;;0.00;0.00;;;24.60;54.50;;;;;;5034545;28;20029;-72
2022/05/22 09:35:11;;;;;;;0.00;0.00;;;24.70;55.30;;;;;;5034326;28;20079;-73
2022/05/22 09:37:59;;;;;;;0.00;0.00;;;25.40;55.30;;;;;;5034055;28;20034;-73
2022/05/22 09:40:48;;;;;;;0.25;0.20;;;26.00;54.00;;;;;;5034306;28;20028;-72
2022/05/22 09:43:50;;;;;;;0.00;0.00;;;26.20;53.30;;;;;;5034426;28;20026;-73
2022/05/22 09:46:37;;;;;;;0.00;0.00;;;26.40;53.00;;;;;;5034285;28;20511;-72
2022/05/22 09:49:41;;;;;;;0.00;0.00;;;26.40;52.40;;;;;;5034188;28;20442;-73
2022/05/22 09:52:20;;;;;;;0.00;0.00;;;26.60;51.20;;;;;;5033749;28;20244;-73
2022/05/22 09:55:01;;;;;;;0.65;0.28;;;26.70;51.20;;;;;;5034137;28;20471;-73
2022/05/22 09:57:55;;;;;;;0.00;0.00;;;26.50;49.60;;;;;;5033853;28;20374;-73
2022/05/22 10:00:30;;;;;;;0.32;0.32;;;26.00;52.20;;;;;;5033924;28;20393;-73
2022/05/22 10:03:13;;;;;;;0.00;0.00;;;26.30;51.20;;;;;;5033806;28;20018;-72
2022/05/22 10:05:54;;;;;;;0.00;0.00;;;26.40;51.30;;;;;;5033923;28;20516;-73
2022/05/22 10:08:37;;;;;;;0.43;0.22;;;26.80;51.00;;;;;;5033593;28;20067;-73
2022/05/22 10:11:14;;;;;;;0.00;0.00;;;27.10;50.70;;;;;;5033695;28;20044;-73
2022/05/22 10:14:07;;;;;;;0.00;0.00;;;27.60;49.10;;;;;;5028775;28;20022;-73
2022/05/22 10:17:01;;;;;;;0.00;0.00;;;27.20;49.40;;;;;;5028667;28;20117;-73
2022/05/22 10:19:50;;;;;;;0.13;0.13;;;27.30;49.70;;;;;;5029284;28;20025;-72
2022/05/22 10:22:33;;;;;;;0.10;0.10;;;27.30;49.50;;;;;;5029305;28;20044;-73
2022/05/22 10:25:35;;;;;;;0.30;0.03;;;27.40;50.50;;;;;;5029640;28;20449;-73
2022/05/22 10:28:04;;;;;;;1.55;1.33;;;27.60;48.60;;;;;;5030992;28;20116;-73
2022/05/22 10:30:41;;;;;;;0.00;0.00;;;27.90;48.50;;;;;;5031078;28;20033;-73
2022/05/22 10:33:18;;;;;;;1.45;0.50;;;27.70;48.50;;;;;;5058812;23;20468;-75
2022/05/22 10:35:53;;;;;;;0.00;0.00;;;27.70;48.30;;;;;;5050514;28;20373;-75
2022/05/22 10:38:34;;;;;;;0.00;0.00;;;27.50;48.30;;;;;;5034959;28;20523;-75
2022/05/22 10:44:06;;;;;;;0.00;0.00;;;27.50;48.20;;;;;;5052309;28;20543;-73
2022/05/22 10:46:43;;;;;;;0.10;0.10;;;27.90;47.40;;;;;;5052788;28;20017;-72
2022/05/22 10:49:09;;;;;;;0.00;0.00;;;27.90;47.40;;;;;;5035016;28;20025;-73
2022/05/22 10:51:35;;;;;;;0.22;0.10;;;28.10;46.60;;;;;;5052807;28;20028;-74
2022/05/22 10:54:02;;;;;;;0.00;0.00;;;28.30;47.40;;;;;;5034226;28;20388;-75
2022/05/22 10:56:34;;;;;;;0.00;0.00;;;28.50;46.30;;;;;;5051922;28;20051;-73
2022/05/22 10:59:17;;;;;;;0.00;0.00;;;28.10;47.10;;;;;;5052703;28;20017;-73
2022/05/22 11:01:43;;;;;;;2.50;1.27;;;27.70;46.60;;;;;;5033927;28;20029;-73
2022/05/22 11:04:12;;;;;;;0.22;0.22;;;27.70;46.70;;;;;;5052865;28;20032;-74
2022/05/22 11:06:56;;;;;;;0.00;0.00;;;27.60;47.00;;;;;;5052356;28;20503;-73
2022/05/22 11:09:31;;;;;;;0.68;0.35;;;27.80;45.90;;;;;;5034431;28;20151;-73
2022/05/22 11:12:12;;;;;;;14.32;1.40;;;27.20;45.90;;;;;;5052804;28;20075;-73
2022/05/22 11:14:39;;;;;;;0.70;0.50;;;27.10;49.50;;;;;;5052199;28;20028;-73
2022/05/22 11:17:21;;;;;;;0.10;0.10;;;27.00;52.60;;;;;;5052078;28;20036;-73
2022/05/22 11:19:54;;;;;;;0.75;0.73;;;27.00;52.10;;;;;;5052474;28;20025;-73
2022/05/22 11:22:31;;;;;;;0.10;0.10;;;26.80;51.60;;;;;;5052424;28;20423;-73
2022/05/22 11:25:17;;;;;;;0.00;0.00;;;26.50;50.90;;;;;;5034386;28;20274;-73
2022/05/22 11:28:24;;;;;;;0.00;0.00;;;26.40;52.50;;;;;;5051809;28;20300;-73
2022/05/22 11:31:09;;;;;;;0.00;0.00;;;26.50;51.20;;;;;;5014938;28;20041;-75
2022/05/22 11:33:59;;;;;;;0.00;0.00;;;27.20;48.30;;;;;;5032213;28;20099;-75
2022/05/22 11:36:58;;;;;;;0.08;0.08;;;27.40;47.20;;;;;;5030734;28;20404;-76
2022/05/22 11:39:52;;;;;;;0.00;0.00;;;27.60;43.80;;;;;;5032224;28;20357;-75
2022/05/22 11:42:49;;;;;;;0.10;0.00;;;27.80;43.30;;;;;;5032113;28;20481;-75
2022/05/22 11:45:32;;;;;;;0.10;0.10;;;27.30;44.30;;;;;;5019995;28;20477;-75
2022/05/22 11:48:09;;;;;;;0.00;0.00;;;27.10;45.60;;;;;;5032102;28;20397;-75
2022/05/22 11:51:03;;;;;;;0.00;0.00;;;27.00;45.20;;;;;;5031902;28;20022;-75
2022/05/22 11:53:57;;;;;;;1.67;0.68;;;26.30;46.30;;;;;;5061877;28;20472;-73
2022/05/22 11:56:33;;;;;;;0.00;0.00;;;26.20;46.10;;;;;;5038574;28;20097;-72
2022/05/22 11:59:21;;;;;;;0.13;0.13;;;26.50;47.00;;;;;;5050837;28;20029;-73
2022/05/22 12:02:08;;;;;;;0.00;0.00;;;26.90;46.10;;;;;;5042671;28;20511;-73
2022/05/22 12:04:47;;;;;;;0.03;0.03;;;27.00;45.40;;;;;;5051736;28;20021;-73
2022/05/22 12:07:13;;;;;;;0.00;0.00;;;26.70;45.50;;;;;;5051408;28;20024;-72
2022/05/22 12:10:03;;;;;;;0.00;0.00;;;26.70;45.90;;;;;;5051583;28;20029;-72
2022/05/22 12:12:43;;;;;;;0.13;0.13;;;27.00;44.40;;;;;;5033951;28;20492;-72
2022/05/22 12:15:50;;;;;;;0.00;0.00;;;26.80;44.10;;;;;;5055752;28;20392;-73
2022/05/22 12:18:29;;;;;;;0.15;0.15;;;26.80;45.30;;;;;;5034827;28;20040;-72
2022/05/22 12:21:13;;;;;;;0.00;0.00;;;26.90;44.60;;;;;;5056087;28;20036;-72
2022/05/22 12:24:15;;;;;;;0.70;0.47;;;26.60;45.20;;;;;;5055694;28;20029;-72
2022/05/22 12:26:42;;;;;;;3.00;0.85;;;26.50;46.20;;;;;;5033254;28;20040;-72
2022/05/22 12:29:29;;;;;;;0.00;0.00;;;26.70;46.30;;;;;;5055481;28;20032;-72
2022/05/22 12:31:59;;;;;;;0.17;0.17;;;27.00;45.70;;;;;;5055398;28;20087;-72
2022/05/22 12:34:37;;;;;;;0.05;0.05;;;27.00;45.10;;;;;;5055531;28;20036;-72
2022/05/22 12:37:05;;;;;;;0.00;0.00;;;26.50;45.70;;;;;;5055360;28;20017;-72
2022/05/22 12:39:41;;;;;;;0.00;0.00;;;26.50;46.40;;;;;;5055281;28;20025;-72
2022/05/22 12:42:15;;;;;;;3.72;1.48;;;25.90;46.20;;;;;;5037585;28;20091;-72
2022/05/22 12:44:41;;;;;;;0.00;0.00;;;26.30;46.60;;;;;;5055389;28;20454;-72
2022/05/22 12:47:13;;;;;;;0.10;0.10;;;26.10;46.30;;;;;;5054802;28;20074;-72
2022/05/22 12:49:39;;;;;;;0.00;0.00;;;26.10;48.00;;;;;;5037324;28;20104;-72
2022/05/22 12:52:24;;;;;;;0.00;0.00;;;26.40;47.60;;;;;;5055273;28;20078;-72
2022/05/22 12:55:09;;;;;;;0.00;0.00;;;26.70;46.40;;;;;;5055083;28;20032;-73
2022/05/22 12:57:36;;;;;;;0.00;0.00;;;26.90;45.90;;;;;;5054954;28;20029;-72
2022/05/22 13:00:10;;;;;;;0.00;0.00;;;26.90;45.50;;;;;;5054935;28;20025;-73
2022/05/22 13:02:41;;;;;;;0.22;0.22;;;27.00;45.70;;;;;;5054939;28;20384;-75
2022/05/22 13:05:15;;;;;;;0.00;0.00;;;26.60;45.50;;;;;;5054962;28;20025;-75
2022/05/22 13:07:42;;;;;;;0.05;0.05;;;26.50;46.20;;;;;;5054529;28;20032;-74
2022/05/22 13:10:30;;;;;;;2.90;1.45;;;26.10;47.00;;;;;;5054834;28;20024;-75
2022/05/22 13:13:08;;;;;;;0.00;0.00;;;26.40;46.70;;;;;;5036968;28;20384;-74
2022/05/22 13:15:35;;;;;;;0.60;0.30;;;26.10;46.60;;;;;;5036974;28;20050;-72
2022/05/22 13:18:12;;;;;;;0.00;0.00;;;25.90;46.10;;;;;;5054388;28;20379;-72
2022/05/22 13:20:37;;;;;;;0.00;0.00;;;26.30;46.30;;;;;;5054875;28;20100;-72
2022/05/22 13:23:07;;;;;;;0.00;0.00;;;26.40;45.50;;;;;;5054787;28;20049;-72
2022/05/22 13:25:44;;;;;;;0.15;0.15;;;26.40;44.70;;;;;;5053865;28;20025;-72